• Join FlightAware (Why Join?)
  • Login
  • US Flag 
02:39PM EDT


 

Airport Tracker/Info


-or-


 

Live Flight TrackerFlight Track Log ✈ TCF3494 ✈ 25-Apr-2013 ✈ KORD - KLGA

Flight Track Log - Related Links

Times and Time Zones

All times are in EDT time to prevent confusion due to time zone crossing. See the TCF3494 flight status page for this flight to view local times or setup timezone preferences in your user account.

Time Position Orientation Groundspeed Altitude Reporting Facility
EDT Latitude Longitude Course Direction KTS MPH feet Rate Location/Type
05:08PM 41.9333 -87.8833 90° East 182 209 2,400  Level Chicago TRACON
05:09PM 41.8833 -87.8333 143° Southeast 240 276 4,300 2,400 Climbing Chicago TRACON
05:10PM 41.8228 -87.6981 121° Southeast 275 316 9,200 2,820 Climbing Chicago Center
05:11PM 41.9333 -87.1145 90° East  Level FlightAware Approximate
05:11PM 41.8183 -87.5633 92° East 301 346 12,300  Level Chicago Center
05:12PM 41.9333 -86.9569 90° East  Level FlightAware Approximate
05:13PM 41.9333 -86.7993 90° East  Level FlightAware Approximate
05:13PM 41.8481 -87.4461 71° East 328 377 14,300  Level Chicago Center
05:14PM 41.8814 -87.3156 71° East 362 417 17,000 2,280 Climbing Chicago Center
05:15PM 41.9147 -87.1850 71° East 370 426 19,100 2,100 Climbing Chicago Center
05:16PM 41.9453 -87.0475 73° East 381 438 21,400 2,040 Climbing Chicago Center
05:17PM 41.9481 -86.8617 89° East 410 472 23,400 1,860 Climbing Chicago Center
05:18PM 41.9497 -86.7039 89° East 422 486 25,300 1,680 Climbing Chicago Center
05:19PM 41.9514 -86.5300 89° East 436 502 27,000 1,500 Climbing Chicago Center
05:20PM 41.9544 -86.3631 89° East 446 513 28,400 1,200 Climbing Chicago Center
05:21PM 41.9531 -86.1925 91° East 454 522 29,500 960 Climbing Chicago Center
05:22PM 41.9364 -86.0150 97° East 473 544 30,500 960 Climbing Chicago Center
05:23PM 41.9194 -85.8344 97° East 483 556 31,500 780 Climbing Chicago Center
05:24PM 41.9019 -85.6503 97° East 491 565 32,200 720 Climbing Chicago Center
05:25PM 41.8847 -85.4628 97° East 498 573 33,100 780 Climbing Chicago Center
05:26PM 41.8656 -85.2750 98° East 500 575 33,900 780 Climbing Chicago Center
05:27PM 41.8517 -85.1164 97° East 501 577 34,600 600 Climbing Cleveland Center
05:28PM 41.8317 -84.9311 98° East 501 577 35,000 180 Climbing Cleveland Center
05:29PM 41.8133 -84.7486 98° East 501 577 35,000  Level Cleveland Center
05:30PM 41.7928 -84.5661 99° East 501 577 35,000  Level Cleveland Center
05:31PM 41.7803 -84.3789 95° East 501 577 35,000  Level Cleveland Center
05:32PM 41.7744 -84.1753 92° East 501 577 35,000  Level Cleveland Center
05:33PM 41.7739 -83.9886 90° East 501 577 35,000  Level Cleveland Center
05:34PM 41.7708 -83.8072 91° East 496 571 35,000  Level Cleveland Center
05:35PM 41.7717 -83.6208 90° East 496 571 35,000  Level Cleveland Center
05:36PM 41.7578 -83.4364 96° East 496 571 35,000  Level Cleveland Center
05:37PM 41.7431 -83.2689 97° East 505 581 35,000  Level Cleveland Center
05:38PM 41.7219 -83.0869 99° East 505 581 35,000  Level Cleveland Center
05:39PM 41.7050 -82.9000 97° East 505 581 35,000  Level Cleveland Center
05:40PM 41.6858 -82.7158 98° East 505 581 35,000  Level Cleveland Center
05:41PM 41.6681 -82.5372 98° East 505 581 35,000  Level Cleveland Center
05:42PM 41.6503 -82.3533 97° East 500 575 35,000  Level Cleveland Center
05:43PM 41.6300 -82.1750 99° East 495 570 35,000 -360 Level Cleveland Center
05:44PM 41.6094 -81.9939 99° East 495 570 34,300 -720 Descending Cleveland Center
05:45PM 41.5889 -81.7936 98° East 495 570 33,600 -660 Descending Cleveland Center
05:46PM 41.5675 -81.6128 99° East 488 562 33,000 -300 Descending Cleveland Center
05:47PM 41.5461 -81.4378 99° East 488 562 33,000  Level Cleveland Center
05:48PM 41.5264 -81.2544 98° East 488 562 33,000  Level Cleveland Center
05:49PM 41.5086 -81.0767 98° East 488 562 33,000  Level Cleveland Center
05:50PM 41.4925 -80.8964 97° East 488 562 33,000  Level Cleveland Center
05:51PM 41.4764 -80.7328 97° East 483 556 33,000  Level Cleveland Center
05:52PM 41.4617 -80.5556 96° East 483 556 33,000  Level Cleveland Center
05:53PM 41.4450 -80.3781 97° East 483 556 33,000  Level Cleveland Center
05:54PM 41.4300 -80.1981 96° East 483 556 33,000  Level Cleveland Center
05:55PM 41.4125 -80.0211 97° East 483 556 33,000  Level Cleveland Center
05:56PM 41.3947 -79.8442 98° East 483 556 33,000  Level Cleveland Center
05:57PM 41.3769 -79.6644 97° East 483 556 33,000  Level Cleveland Center
05:58PM 41.3586 -79.4878 98° East 483 556 33,000  Level Cleveland Center
05:59PM 41.3422 -79.3136 97° East 483 556 33,000  Level Cleveland Center
06:00PM 41.3233 -79.1342 98° East 483 556 33,000  Level Cleveland Center
06:01PM 41.3044 -78.9578 98° East 483 556 33,000  Level Cleveland Center
06:02PM 41.2850 -78.7814 98° East 483 556 33,000  Level Cleveland Center
06:03PM 41.2675 -78.6025 97° East 483 556 33,000  Level Cleveland Center
06:04PM 41.2475 -78.4261 99° East 483 556 33,000  Level Cleveland Center
06:05PM 41.2217 -78.2111 99° East 490 564 33,000  Level New York Center
06:06PM 41.2014 -78.0322 99° East 490 564 33,000  Level New York Center
06:07PM 41.1786 -77.8561 100° East 490 564 33,000  Level New York Center
06:08PM 41.1553 -77.6856 100° East 490 564 33,000  Level New York Center
06:09PM 41.1344 -77.5069 99° East 490 564 33,000  Level New York Center
06:10PM 41.1078 -77.3142 100° East 490 564 33,000 -900 Level New York Center
06:11PM 41.0861 -77.1358 99° East 490 564 31,200 -2,220 Descending New York Center
06:12PM 41.0619 -76.9631 100° East 490 564 28,600 -2,580 Descending New York Center
06:13PM 41.0394 -76.7958 100° East 480 552 26,200 -2,340 Descending New York Center
06:14PM 41.0158 -76.6397 101° East 453 521 24,000 -2,220 Descending New York Center
06:15PM 40.9814 -76.4936 107° East 428 493 21,800 -2,220 Descending New York Center
06:16PM 40.9464 -76.3533 108° East 412 474 19,700 -1,980 Descending New York Center
06:17PM 40.9189 -76.2303 106° East 392 451 18,000 -900 Descending New York Center
06:18PM 40.8853 -76.0958 108° East 387 445 17,900 -840 Descending New York Center
06:19PM 40.8481 -75.9475 108° East 393 452 16,300 -1,500 Descending New York Center
06:20PM 40.8183 -75.8192 107° East 379 436 14,900 -1,320 Descending New York Center
06:21PM 40.7861 -75.6961 109° East 362 417 13,800 -1,020 Descending New York Center
06:22PM 40.7578 -75.5736 107° East 357 411 13,000 -420 Descending New York Center
06:23PM 40.7250 -75.4508 109° East 357 411 13,000  Level New York Center
06:24PM 40.7008 -75.3258 104° East 352 405 13,000 -120 Level New York Center
06:25PM 40.6764 -75.2011 104° East 347 399 12,800 -1,020 Descending New York Center
06:27PM 40.5750 -75.0142 125° Southeast 335 386 10,000 -960 Descending New York Center
06:28PM 40.5372 -74.9000 113° Southeast 313 360 10,000  Level New York Center
06:28PM 40.5333 -74.8667 99° East 310 357 10,000  Level New York TRACON
06:29PM 40.5000 -74.7667 114° Southeast 310 357 10,000  Level New York TRACON
06:30PM 40.4667 -74.6500 111° Southeast 308 354 10,000  Level New York TRACON
06:31PM 40.4333 -74.5500 114° Southeast 310 357 10,000 -480 Level New York TRACON
06:32PM 40.4500 -74.4500 78° East 304 350 9,100 -1,020 Descending New York TRACON
06:33PM 40.4833 -74.3500 66° East 296 341 8,100 -1,140 Descending New York TRACON
06:34PM 40.5000 -74.2500 78° East 289 333 7,000 -840 Descending New York TRACON
06:35PM 40.5333 -74.1667 62° Northeast 245 282 6,500 -780 Descending New York TRACON
06:36PM 40.5667 -74.1000 57° Northeast 230 265 5,500 -1,200 Descending New York TRACON
06:37PM 40.6167 -74.0500 37° Northeast 228 262 4,200 -780 Descending New York TRACON
06:38PM 40.6833 -74.0333 11° North 225 259 4,000 -120 Descending New York TRACON
06:39PM 40.7500 -74.0167 11° North 226 260 4,000  Level New York TRACON
06:40PM 40.8000 -73.9833 27° Northeast 223 257 4,000 -180 Level New York TRACON
06:41PM 40.8500 -73.9500 27° Northeast 223 257 3,700 -480 Descending New York TRACON
06:42PM 40.9000 -73.9000 37° Northeast 210 242 3,200 -300 Descending New York TRACON
06:43PM 40.9500 -73.8500 37° Northeast 188 216 3,100 -60 Descending New York TRACON
06:44PM 40.9500 -73.8000 90° East 199 229 3,100 -420 Level New York TRACON
06:45PM 40.9000 -73.7833 166° South 184 212 2,400 -720 Descending New York TRACON